Time;durP1;ratioP1;P1;durP2;ratioP2;P2;SDS_P1;SDS_P2;PMS_P1;PMS_P2;Temp;Humidity;BMP_temperature;BMP_pressure;BME280_temperature;BME280_humidity;BME280_pressure;Samples;Min_cycle;Max_cycle;Signal;HPM_P1;HPM_P2
2022/11/01 00:01:57;;;;;;;;;;;;;;;19.37;71.04;100972.59;2332800;76;51497;-75
2022/11/01 00:04:59;;;;;;;;;;;;;;;19.37;71.05;100967.22;2298138;76;50025;-74
2022/11/01 00:08:01;;;;;;;;;;;;;;;19.37;71.02;100964.53;2304344;75;51485;-74
2022/11/01 00:11:03;;;;;;;;;;;;;;;19.36;71.05;100957.48;2345498;74;51482;-74
2022/11/01 00:14:04;;;;;;;;;;;;;;;19.36;71.01;100945.41;2332541;76;50346;-74
2022/11/01 00:17:06;;;;;;;;;;;;;;;19.34;71.03;100937.56;2298630;76;49606;-74
2022/11/01 00:20:08;;;;;;;;;;;;;;;19.34;71.05;100928.65;2297543;76;50295;-73
2022/11/01 00:23:09;;;;;;;;;;;;;;;19.35;71.02;100918.27;2332777;76;50374;-73
2022/11/01 00:26:15;;;;;;;;;;;;;;;19.33;71.09;100909.04;2332597;76;50695;-74
2022/11/01 00:29:17;;;;;;;;;;;;;;;19.32;71.06;100893.97;2332728;76;51538;-74
2022/11/01 00:32:18;;;;;;;;;;;;;;;19.33;71.06;100896.14;2297447;76;51551;-74
2022/11/01 00:35:20;;;;;;;;;;;;;;;19.33;71.05;100938.55;2332600;76;51442;-75
2022/11/01 00:38:22;;;;;;;;;;;;;;;19.34;71.05;100931.33;2332008;76;50703;-75
2022/11/01 00:41:23;;;;;;;;;;;;;;;19.33;71.03;100895.63;2304929;76;51114;-76
2022/11/01 00:44:25;;;;;;;;;;;;;;;19.33;71.04;100888.91;2332573;76;51433;-76
2022/11/01 00:47:26;;;;;;;;;;;;;;;19.33;71.02;100938.55;2298934;76;51485;-75
2022/11/01 00:50:28;;;;;;;;;;;;;;;19.32;71.08;100941.44;2298905;76;50222;-75
2022/11/01 00:53:30;;;;;;;;;;;;;;;19.32;71.09;100930.19;2294768;75;49551;-76
2022/11/01 00:56:31;;;;;;;;;;;;;;;19.31;71.09;100927.67;2305144;77;50641;-76
2022/11/01 00:59:33;;;;;;;;;;;;;;;19.30;71.10;100922.83;2304967;76;50574;-75
2022/11/01 01:02:34;;;;;;;;;;;;;;;19.31;71.08;100911.58;2274279;77;50650;-78
2022/11/01 01:05:36;;;;;;;;;;;;;;;19.30;71.08;100905.38;2273817;77;50957;-76
2022/11/01 01:08:37;;;;;;;;;;;;;;;19.28;71.17;100902.04;2283121;76;51538;-76
2022/11/01 01:11:39;;;;;;;;;;;;;;;19.29;71.08;100891.66;2277914;77;50254;-76
2022/11/01 01:14:41;;;;;;;;;;;;;;;19.32;71.02;100883.75;2273869;77;50605;-76
2022/11/01 01:17:42;;;;;;;;;;;;;;;19.30;71.05;100874.53;2299726;76;49036;-75
2022/11/01 01:20:44;;;;;;;;;;;;;;;19.31;71.05;100869.48;2274116;77;50596;-76
2022/11/01 01:23:47;;;;;;;;;;;;;;;19.32;71.06;100864.45;2304931;77;51479;-75
2022/11/01 01:26:49;;;;;;;;;;;;;;;19.32;71.02;100860.94;2306622;77;51541;-75
2022/11/01 01:29:51;;;;;;;;;;;;;;;19.30;71.01;100847.70;2276623;77;50094;-74
2022/11/01 01:32:52;;;;;;;;;;;;;;;19.31;71.00;100839.14;2305297;77;51526;-75
2022/11/01 01:35:54;;;;;;;;;;;;;;;19.30;70.96;100823.55;2304983;77;51482;-75
2022/11/01 01:38:55;;;;;;;;;;;;;;;19.30;71.04;100814.16;2323523;76;50302;-74
2022/11/01 01:41:57;;;;;;;;;;;;;;;19.29;71.12;100837.14;2275339;77;51635;-75
2022/11/01 01:45:00;;;;;;;;;;;;;;;19.24;71.41;100863.20;2305177;77;50785;-76
2022/11/01 01:48:16;;;;;;;;;;;;;;;19.23;71.41;100870.90;2305147;76;50371;-75
2022/11/01 01:51:18;;;;;;;;;;;;;;;19.22;71.52;100871.93;2340257;76;50401;-75
2022/11/01 01:54:20;;;;;;;;;;;;;;;19.25;71.29;100875.58;2322192;74;49824;-74
2022/11/01 01:57:21;;;;;;;;;;;;;;;19.27;71.22;100864.17;2374282;75;50772;-76
2022/11/01 02:00:23;;;;;;;;;;;;;;;19.26;71.18;100859.80;2371101;75;52503;-77
2022/11/01 02:03:26;;;;;;;;;;;;;;;19.27;71.13;100862.83;2370655;74;50407;-76
2022/11/01 02:06:27;;;;;;;;;;;;;;;19.25;71.11;100856.80;2340494;75;50299;-75
2022/11/01 02:09:29;;;;;;;;;;;;;;;19.27;71.07;100852.09;2356573;75;50351;-76
2022/11/01 02:12:32;;;;;;;;;;;;;;;19.26;71.11;100841.02;2352622;75;50574;-76
2022/11/01 02:15:36;;;;;;;;;;;;;;;19.28;71.10;100832.80;2356155;74;51532;-76
2022/11/01 02:18:45;;;;;;;;;;;;;;;19.27;71.08;100819.91;2338544;75;51778;-76
2022/11/01 02:21:54;;;;;;;;;;;;;;;19.29;71.05;100819.22;2356278;75;51540;-76
2022/11/01 02:25:12;;;;;;;;;;;;;;;19.27;71.05;100814.53;2346342;75;51420;-76
2022/11/01 02:28:21;;;;;;;;;;;;;;;19.27;71.03;100811.85;2330519;76;50420;-75
2022/11/01 02:31:36;;;;;;;;;;;;;;;19.27;71.02;100802.46;2325186;75;50565;-77
2022/11/01 02:34:51;;;;;;;;;;;;;;;19.27;71.02;100797.09;2370061;75;50561;-75
2022/11/01 02:37:54;;;;;;;;;;;;;;;19.25;71.00;100793.76;2363711;75;51456;-76
2022/11/01 02:40:57;;;;;;;;;;;;;;;19.26;71.04;100794.58;2358763;75;50788;-76
2022/11/01 02:44:03;;;;;;;;;;;;;;;19.27;71.04;100798.95;2317396;75;50977;-74
2022/11/01 02:47:04;;;;;;;;;;;;;;;19.25;71.11;100790.25;2349633;75;51477;-75
2022/11/01 02:50:07;;;;;;;;;;;;;;;19.20;71.15;100783.27;2349690;75;51433;-75
2022/11/01 02:53:08;;;;;;;;;;;;;;;19.20;71.03;100774.70;2349690;75;51456;-75
2022/11/01 02:56:10;;;;;;;;;;;;;;;19.17;70.98;100769.70;2308551;76;51896;-74
2022/11/01 02:59:14;;;;;;;;;;;;;;;19.17;71.03;100770.22;2303351;76;50768;-73
2022/11/01 03:02:20;;;;;;;;;;;;;;;19.17;70.92;100774.25;2341364;76;49948;-74
2022/11/01 03:05:32;;;;;;;;;;;;;;;19.16;70.92;100766.68;2341283;76;52946;-75
2022/11/01 03:08:40;;;;;;;;;;;;;;;19.16;70.93;100773.39;2315696;75;51207;-76
2022/11/01 03:11:43;;;;;;;;;;;;;;;19.17;70.90;100780.95;2347008;74;50181;-74
2022/11/01 03:14:49;;;;;;;;;;;;;;;19.22;71.02;100788.77;2381725;74;50134;-75
2022/11/01 03:17:52;;;;;;;;;;;;;;;19.18;70.82;100781.27;2382022;74;50358;-75
2022/11/01 03:20:58;;;;;;;;;;;;;;;19.17;70.75;100782.30;2348213;74;50285;-75
2022/11/01 03:24:15;;;;;;;;;;;;;;;19.15;70.78;100783.30;2382072;74;22290;-75
2022/11/01 03:27:19;;;;;;;;;;;;;;;19.17;70.79;100783.12;2381926;74;50039;-75
2022/11/01 03:30:20;;;;;;;;;;;;;;;19.14;70.77;100784.32;2381944;74;50390;-74
2022/11/01 03:33:22;;;;;;;;;;;;;;;19.15;70.81;100790.52;2348565;74;49537;-74
2022/11/01 03:36:24;;;;;;;;;;;;;;;19.14;70.62;100797.73;2382072;74;50150;-75
2022/11/01 03:39:27;;;;;;;;;;;;;;;19.17;70.75;100793.02;2342306;74;51206;-75
2022/11/01 03:42:29;;;;;;;;;;;;;;;19.13;70.68;100792.02;2332924;76;50425;-75
2022/11/01 03:45:30;;;;;;;;;;;;;;;19.12;70.67;100778.30;2298543;76;50026;-75
2022/11/01 03:48:32;;;;;;;;;;;;;;;19.11;70.60;100778.47;2332924;76;50601;-76
2022/11/01 03:51:34;;;;;;;;;;;;;;;19.10;70.54;100782.18;2332963;76;51476;-75
2022/11/01 03:54:35;;;;;;;;;;;;;;;19.11;70.56;100769.08;2333248;76;51200;-76
2022/11/01 03:57:37;;;;;;;;;;;;;;;19.09;70.42;100769.80;2312349;76;50854;-75
2022/11/01 04:00:39;;;;;;;;;;;;;;;19.14;70.64;100772.77;2344725;76;50671;-75
2022/11/01 04:03:41;;;;;;;;;;;;;;;19.14;70.62;100768.74;2312257;76;50619;-75
2022/11/01 04:06:42;;;;;;;;;;;;;;;19.12;70.44;100770.25;2344825;75;51480;-76
2022/11/01 04:09:44;;;;;;;;;;;;;;;19.12;70.54;100765.41;2323666;75;51323;-75
2022/11/01 04:12:46;;;;;;;;;;;;;;;19.14;70.56;100774.10;2374845;75;51496;-75
2022/11/01 04:22:26;;;;;;;;;;;;;;;19.13;70.49;100759.84;2375262;75;22331;-76
2022/11/01 04:25:28;;;;;;;;;;;;;;;19.13;70.46;100761.69;2374571;75;50340;-75
2022/11/01 04:28:30;;;;;;;;;;;;;;;19.12;70.50;100768.09;2374799;75;50318;-74
2022/11/01 04:31:32;;;;;;;;;;;;;;;19.16;70.61;100780.09;2374811;75;50329;-76
2022/11/01 04:34:42;;;;;;;;;;;;;;;19.17;70.41;100788.48;2374596;75;51524;-75
2022/11/01 04:37:44;;;;;;;;;;;;;;;19.11;70.22;100783.35;2343342;75;51601;-75
2022/11/01 04:40:45;;;;;;;;;;;;;;;19.13;70.27;100780.47;2322825;76;51477;-75
2022/11/01 04:43:47;;;;;;;;;;;;;;;19.12;70.25;100770.25;2324651;76;50406;-75
2022/11/01 04:46:48;;;;;;;;;;;;;;;19.13;70.28;100768.39;2324715;76;49614;-75
2022/11/01 04:49:50;;;;;;;;;;;;;;;19.12;70.28;100766.74;2324974;76;50347;-75
2022/11/01 04:52:52;;;;;;;;;;;;;;;19.14;70.34;100776.79;2344807;75;50707;-74
2022/11/01 04:55:53;;;;;;;;;;;;;;;19.14;70.32;100760.70;2341868;76;51398;-75
2022/11/01 04:58:56;;;;;;;;;;;;;;;19.10;70.30;100762.89;2288941;76;49949;-75
2022/11/01 05:01:57;;;;;;;;;;;;;;;19.09;70.32;100761.23;2314443;76;50086;-75
2022/11/01 05:04:59;;;;;;;;;;;;;;;19.09;70.32;100755.05;2336483;75;50340;-75
2022/11/01 05:08:01;;;;;;;;;;;;;;;19.15;70.46;100751.10;2313327;74;50346;-75
2022/11/01 05:11:03;;;;;;;;;;;;;;;19.14;70.26;100753.98;2309373;76;50986;-73
2022/11/01 05:14:04;;;;;;;;;;;;;;;19.10;70.16;100752.67;2332739;76;50730;-75
2022/11/01 05:17:06;;;;;;;;;;;;;;;19.12;70.31;100746.63;2332790;76;51438;-74
2022/11/01 05:20:09;;;;;;;;;;;;;;;19.12;70.24;100739.92;2332830;76;51546;-75
2022/11/01 05:23:10;;;;;;;;;;;;;;;19.11;70.21;100740.92;2298551;76;50998;-73
2022/11/01 05:26:12;;;;;;;;;;;;;;;19.11;70.54;100743.60;2330103;75;51566;-74
2022/11/01 05:29:13;;;;;;;;;;;;;;;19.11;70.48;100745.80;2338348;75;51762;-74
2022/11/01 05:32:16;;;;;;;;;;;;;;;19.10;70.49;100735.24;2373671;75;50915;-74
2022/11/01 05:35:17;;;;;;;;;;;;;;;19.10;70.27;100709.25;2330222;75;49612;-74
2022/11/01 05:38:19;;;;;;;;;;;;;;;19.08;69.87;100737.27;2364667;75;50675;-74
2022/11/01 05:41:21;;;;;;;;;;;;;;;19.10;70.15;100724.52;2335575;75;51480;-74
2022/11/01 05:44:22;;;;;;;;;;;;;;;19.11;70.25;100723.00;2336567;76;50765;-73
2022/11/01 05:47:24;;;;;;;;;;;;;;;19.14;70.06;100740.06;2314075;76;51318;-73
2022/11/01 05:50:25;;;;;;;;;;;;;;;19.12;70.23;100731.87;2336569;76;51468;-73
2022/11/01 05:53:27;;;;;;;;;;;;;;;19.10;70.26;100745.46;2314373;76;50391;-75
2022/11/01 05:56:28;;;;;;;;;;;;;;;19.09;70.34;100730.91;2314560;76;50394;-73
2022/11/01 05:59:30;;;;;;;;;;;;;;;19.11;70.29;100722.14;2314501;76;50075;-72
2022/11/01 06:02:32;;;;;;;;;;;;;;;19.10;70.38;100726.69;2314600;76;50047;-73
2022/11/01 06:05:33;;;;;;;;;;;;;;;19.11;70.57;100735.08;2336556;75;51478;-73
2022/11/01 06:08:35;;;;;;;;;;;;;;;19.13;70.79;100746.94;2344725;74;51374;-73
2022/11/01 06:11:36;;;;;;;;;;;;;;;19.15;72.23;100747.59;2293988;76;50947;-73
2022/11/01 06:14:38;;;;;;;;;;;;;;;19.15;71.36;100739.55;2298653;76;51586;-73
2022/11/01 06:17:40;;;;;;;;;;;;;;;19.14;71.36;100744.09;2298821;76;51468;-73
2022/11/01 06:20:41;;;;;;;;;;;;;;;19.14;71.16;100744.09;2332916;76;51507;-72
2022/11/01 06:23:44;;;;;;;;;;;;;;;19.16;70.98;100733.16;2273375;76;49396;-73
2022/11/01 06:26:46;;;;;;;;;;;;;;;19.18;70.55;100727.62;2336755;76;49965;-74
2022/11/01 06:29:48;;;;;;;;;;;;;;;19.15;70.96;100746.25;2336878;75;51469;-73
2022/11/01 06:32:49;;;;;;;;;;;;;;;19.15;70.73;100732.84;2321972;75;51491;-74
2022/11/01 06:35:51;;;;;;;;;;;;;;;19.17;70.65;100711.21;2310457;75;49321;-73
2022/11/01 06:38:53;;;;;;;;;;;;;;;19.15;70.71;100718.09;2373456;75;50320;-73
2022/11/01 06:41:54;;;;;;;;;;;;;;;19.17;70.27;100740.20;2373922;75;50563;-74
2022/11/01 06:44:56;;;;;;;;;;;;;;;19.17;69.81;100742.88;2372299;75;50355;-73
2022/11/01 06:47:57;;;;;;;;;;;;;;;19.15;69.91;100746.25;2311920;75;51120;-74
2022/11/01 06:51:01;;;;;;;;;;;;;;;19.12;69.99;100750.66;2338374;75;50198;-73
2022/11/01 06:54:02;;;;;;;;;;;;;;;19.13;70.06;100741.58;2373478;75;50180;-73
2022/11/01 06:57:04;;;;;;;;;;;;;;;19.12;70.28;100746.11;2338166;75;51983;-73
2022/11/01 07:00:08;;;;;;;;;;;;;;;19.11;70.31;100734.22;2338277;75;51740;-74
2022/11/01 07:03:10;;;;;;;;;;;;;;;19.12;70.45;100742.61;2355922;74;50402;-74
2022/11/01 07:06:12;;;;;;;;;;;;;;;19.21;70.14;100742.82;2332712;76;52374;-73
2022/11/01 07:09:13;;;;;;;;;;;;;;;19.26;69.96;100743.09;2334355;75;50284;-73
2022/11/01 07:12:15;;;;;;;;;;;;;;;19.29;69.89;100752.63;2317004;75;50970;-72
2022/11/01 07:15:17;;;;;;;;;;;;;;;19.30;69.83;100768.55;2310112;75;51538;-74
2022/11/01 07:18:18;;;;;;;;;;;;;;;19.29;69.88;100778.11;2355613;75;51282;-73
2022/11/01 07:21:20;;;;;;;;;;;;;;;19.28;69.83;100769.75;2332003;75;51384;-74
2022/11/01 07:24:21;;;;;;;;;;;;;;;19.23;69.98;100766.28;2313079;76;49512;-73
2022/11/01 07:27:23;;;;;;;;;;;;;;;19.18;70.17;100759.80;2298498;76;51458;-74
2022/11/01 07:30:25;;;;;;;;;;;;;;;19.15;70.22;100760.49;2335617;75;51455;-73
2022/11/01 07:33:27;;;;;;;;;;;;;;;19.12;70.27;100770.77;2352246;75;51596;-73
2022/11/01 07:36:28;;;;;;;;;;;;;;;19.15;70.23;100797.22;2297793;76;52481;-72
2022/11/01 07:39:30;;;;;;;;;;;;;;;19.12;70.27;100785.52;2321126;75;51506;-73
2022/11/01 07:42:31;;;;;;;;;;;;;;;19.11;70.27;100797.25;2338264;75;50434;-75
2022/11/01 07:45:33;;;;;;;;;;;;;;;19.12;70.24;100792.23;2298859;76;50119;-74
2022/11/01 07:48:35;;;;;;;;;;;;;;;19.11;70.35;100808.83;2310938;74;51352;-73
2022/11/01 07:51:37;;;;;;;;;;;;;;;19.13;70.32;100809.97;2299943;76;50659;-75
2022/11/01 07:54:38;;;;;;;;;;;;;;;19.12;70.25;100810.48;2325411;76;51459;-72
2022/11/01 07:57:40;;;;;;;;;;;;;;;19.18;70.19;100801.38;2326504;76;51489;-72
2022/11/01 08:00:42;;;;;;;;;;;;;;;19.15;70.14;100815.48;2302949;74;49452;-73
2022/11/01 08:03:43;;;;;;;;;;;;;;;19.17;70.38;100826.04;2325479;73;51385;-74
2022/11/01 08:06:45;;;;;;;;;;;;;;;19.25;70.03;100831.31;2379946;74;50317;-73
2022/11/01 08:09:46;;;;;;;;;;;;;;;19.26;69.98;100832.97;2361230;74;50301;-73
2022/11/01 08:12:48;;;;;;;;;;;;;;;19.31;69.77;100837.28;2348476;74;49152;-74
2022/11/01 08:15:50;;;;;;;;;;;;;;;19.28;69.89;100840.84;2358655;74;50753;-77
2022/11/01 08:18:51;;;;;;;;;;;;;;;19.28;69.95;100835.48;2345260;75;50324;-72
2022/11/01 08:21:55;;;;;;;;;;;;;;;19.22;70.18;100837.05;2312782;76;51508;-74
2022/11/01 08:24:56;;;;;;;;;;;;;;;19.22;70.25;100837.05;2315573;76;51483;-74
2022/11/01 08:28:03;;;;;;;;;;;;;;;19.24;70.16;100837.71;2312614;76;50283;-74
2022/11/01 08:31:05;;;;;;;;;;;;;;;19.26;70.08;100846.38;2343627;75;50391;-75
2022/11/01 08:34:07;;;;;;;;;;;;;;;19.28;70.02;100834.97;2312460;76;50680;-74
2022/11/01 08:37:08;;;;;;;;;;;;;;;19.27;70.00;100823.09;2312534;76;50040;-74
2022/11/01 08:40:11;;;;;;;;;;;;;;;19.20;70.21;100828.34;2312639;76;51551;-75
2022/11/01 08:43:12;;;;;;;;;;;;;;;19.17;70.37;100839.45;2344898;76;50432;-74
2022/11/01 08:46:14;;;;;;;;;;;;;;;19.16;70.46;100841.79;2354404;74;51450;-73
2022/11/01 08:49:16;;;;;;;;;;;;;;;19.16;70.53;100828.38;2324684;76;51162;-73
2022/11/01 08:52:17;;;;;;;;;;;;;;;19.15;70.38;100824.86;2324904;76;51552;-73
2022/11/01 08:55:20;;;;;;;;;;;;;;;19.16;70.47;100825.69;2325051;76;51500;-77
2022/11/01 08:58:21;;;;;;;;;;;;;;;19.20;70.41;100816.80;2330297;74;50366;-79
2022/11/01 09:01:25;;;;;;;;;;;;;;;19.22;70.29;100815.59;2325715;74;49519;-73
2022/11/01 09:04:26;;;;;;;;;;;;;;;19.24;70.12;100815.39;2353531;74;22380;-72
2022/11/01 09:07:29;;;;;;;;;;;;;;;19.21;70.07;100837.22;2386647;74;51473;-73
2022/11/01 09:10:31;;;;;;;;;;;;;;;19.21;70.19;100839.91;2386235;74;50309;-73
2022/11/01 09:13:33;;;;;;;;;;;;;;;19.20;70.14;100843.62;2352421;74;51216;-73
2022/11/01 09:16:34;;;;;;;;;;;;;;;19.19;70.11;100831.20;2323376;76;50652;-73
2022/11/01 09:19:36;;;;;;;;;;;;;;;19.20;70.10;100832.89;2325263;76;51721;-75
2022/11/01 09:22:38;;;;;;;;;;;;;;;19.20;70.08;100814.94;2325112;76;51904;-73
2022/11/01 09:25:39;;;;;;;;;;;;;;;19.20;70.07;100814.94;2325585;76;50975;-73
2022/11/01 09:28:41;;;;;;;;;;;;;;;19.21;70.08;100823.81;2329064;76;51507;-73
2022/11/01 09:31:43;;;;;;;;;;;;;;;19.21;70.06;100814.42;2345400;76;50769;-72
2022/11/01 09:34:45;;;;;;;;;;;;;;;19.20;70.02;100810.09;2330931;74;51598;-73
2022/11/01 09:37:47;;;;;;;;;;;;;;;19.18;70.04;100823.67;2328470;76;49697;-72
2022/11/01 09:40:49;;;;;;;;;;;;;;;19.19;70.03;100836.08;2315481;76;50733;-73
2022/11/01 09:43:51;;;;;;;;;;;;;;;19.16;70.04;100849.84;2346477;76;50876;-73
2022/11/01 09:46:54;;;;;;;;;;;;;;;19.17;70.09;100863.59;2344825;76;51599;-72
2022/11/01 09:50:00;;;;;;;;;;;;;;;19.19;70.09;100861.56;2344624;76;50835;-72
2022/11/01 09:53:06;;;;;;;;;;;;;;;19.18;70.12;100853.69;2304068;76;52534;-73
2022/11/01 09:56:12;;;;;;;;;;;;;;;19.19;70.13;100864.25;2344778;74;50525;-73
2022/11/01 09:59:31;;;;;;;;;;;;;;;19.20;70.08;100871.27;2354418;74;51579;-74
2022/11/01 10:02:34;;;;;;;;;;;;;;;19.22;70.04;100873.27;2344368;75;50774;-74
2022/11/01 10:05:37;;;;;;;;;;;;;;;19.24;69.99;100875.75;2317827;76;52682;-74
2022/11/01 10:08:52;;;;;;;;;;;;;;;19.21;70.05;100872.09;2337289;75;51537;-75
2022/11/01 10:11:56;;;;;;;;;;;;;;;19.23;69.99;100860.17;2340850;75;50901;-74
2022/11/01 10:14:59;;;;;;;;;;;;;;;19.21;70.03;100853.32;2356916;75;51468;-75
2022/11/01 10:18:05;;;;;;;;;;;;;;;19.21;70.02;100852.80;2259022;76;51005;-75
2022/11/01 10:21:13;;;;;;;;;;;;;;;19.21;70.04;100863.53;2329165;76;51688;-75
2022/11/01 10:24:19;;;;;;;;;;;;;;;19.21;70.00;100858.69;2332573;76;50812;-74
2022/11/01 10:27:29;;;;;;;;;;;;;;;19.20;70.01;100853.83;2333200;76;50862;-76
2022/11/01 10:30:32;;;;;;;;;;;;;;;19.19;70.00;100856.69;2295994;76;52663;-75
2022/11/01 10:33:34;;;;;;;;;;;;;;;19.18;70.03;100851.83;2332804;76;51645;-74
2022/11/01 10:36:37;;;;;;;;;;;;;;;19.21;69.96;100862.19;2339997;74;50336;-74
2022/11/01 10:39:41;;;;;;;;;;;;;;;19.19;69.99;100862.05;2350624;74;50676;-75
2022/11/01 10:42:43;;;;;;;;;;;;;;;19.18;69.97;100873.30;2337306;75;50094;-75
2022/11/01 10:45:45;;;;;;;;;;;;;;;19.17;70.00;100877.00;2373409;75;51506;-75
2022/11/01 10:48:54;;;;;;;;;;;;;;;19.18;70.04;100878.66;2373520;75;50396;-76
2022/11/01 10:51:56;;;;;;;;;;;;;;;19.17;70.07;100881.03;2358166;75;50759;-75
2022/11/01 10:54:58;;;;;;;;;;;;;;;19.17;70.11;100882.88;2338055;75;49615;-74
2022/11/01 10:58:03;;;;;;;;;;;;;;;19.16;70.09;100875.31;2371093;74;50121;-76
2022/11/01 11:01:06;;;;;;;;;;;;;;;19.16;70.07;100873.98;2344693;76;51592;-76
2022/11/01 11:04:10;;;;;;;;;;;;;;;19.15;70.07;100863.77;2354035;74;51625;-76
2022/11/01 11:07:15;;;;;;;;;;;;;;;19.16;70.04;100864.59;2312159;76;49689;-76
2022/11/01 11:10:25;;;;;;;;;;;;;;;19.19;69.95;100862.91;2327692;74;50270;-77
2022/11/01 11:13:27;;;;;;;;;;;;;;;19.18;70.03;100871.95;2344568;76;51514;-77
2022/11/01 11:16:45;;;;;;;;;;;;;;;19.15;70.21;100879.03;2344760;74;51512;-75
2022/11/01 11:19:47;;;;;;;;;;;;;;;19.19;70.11;100882.17;2312201;76;51128;-76
2022/11/01 11:22:48;;;;;;;;;;;;;;;19.20;70.08;100882.00;2312741;76;50472;-77
2022/11/01 11:25:50;;;;;;;;;;;;;;;19.21;70.03;100885.00;2312619;76;50359;-75
2022/11/01 11:28:52;;;;;;;;;;;;;;;19.22;70.02;100884.00;2344662;74;50214;-75
2022/11/01 11:31:54;;;;;;;;;;;;;;;19.21;70.04;100895.73;2312364;76;51041;-76
2022/11/01 11:34:58;;;;;;;;;;;;;;;19.20;70.09;100902.63;2355088;74;51544;-75
2022/11/01 11:38:03;;;;;;;;;;;;;;;19.18;70.12;100896.09;2357243;74;51598;-75
2022/11/01 11:41:05;;;;;;;;;;;;;;;19.19;70.06;100890.22;2344603;75;51682;-76
2022/11/01 11:44:14;;;;;;;;;;;;;;;19.19;70.11;100900.95;2323711;74;50044;-76
2022/11/01 11:47:28;;;;;;;;;;;;;;;19.20;70.06;100898.61;2303851;77;51566;-76
2022/11/01 11:50:33;;;;;;;;;;;;;;;19.20;70.06;100905.31;2303970;77;51803;-76
2022/11/01 11:53:35;;;;;;;;;;;;;;;19.18;70.06;100910.02;2263848;77;51614;-77
2022/11/01 11:56:36;;;;;;;;;;;;;;;19.17;70.11;100899.80;2233650;78;49527;-76
2022/11/01 11:59:38;;;;;;;;;;;;;;;19.16;70.09;100887.39;2250649;78;51602;-76
2022/11/01 12:02:40;;;;;;;;;;;;;;;19.17;70.12;100890.41;2244446;79;51416;-77
2022/11/01 12:05:43;;;;;;;;;;;;;;;19.16;70.09;100891.41;2253359;78;51579;-75
2022/11/01 12:08:46;;;;;;;;;;;;;;;19.15;70.17;100903.17;2209313;79;50990;-76
2022/11/01 12:11:47;;;;;;;;;;;;;;;19.15;70.14;100904.51;2230342;79;50324;-75
2022/11/01 12:14:49;;;;;;;;;;;;;;;19.15;70.12;100912.55;2230161;79;50341;-75
2022/11/01 12:17:50;;;;;;;;;;;;;;;19.16;70.13;100908.84;2237530;78;51441;-77
2022/11/01 12:20:52;;;;;;;;;;;;;;;19.14;70.17;100912.23;2278829;78;50138;-75
2022/11/01 12:23:55;;;;;;;;;;;;;;;19.15;70.14;100923.28;2298972;74;50080;-75
2022/11/01 12:27:00;;;;;;;;;;;;;;;19.15;70.11;100912.05;2376142;74;50435;-77
2022/11/01 12:30:04;;;;;;;;;;;;;;;19.15;70.12;100912.55;2334172;76;51491;-74
2022/11/01 12:33:07;;;;;;;;;;;;;;;19.11;70.30;100910.75;2301002;74;49743;-73
2022/11/01 12:36:08;;;;;;;;;;;;;;;19.11;70.35;100913.44;2367536;74;50504;-74
2022/11/01 12:39:30;;;;;;;;;;;;;;;19.11;70.37;100914.77;2303506;76;50301;-74
2022/11/01 12:42:42;;;;;;;;;;;;;;;19.11;70.46;100917.94;2341488;76;52263;-74
2022/11/01 12:45:45;;;;;;;;;;;;;;;19.12;70.52;100916.95;2329656;75;49500;-71
2022/11/01 12:48:48;;;;;;;;;;;;;;;19.14;70.36;100920.28;2342992;75;51587;-72
2022/11/01 12:51:51;;;;;;;;;;;;;;;19.14;70.49;100922.97;2334401;76;50404;-74
2022/11/01 12:54:57;;;;;;;;;;;;;;;19.14;70.49;100936.38;2336210;75;51533;-74
2022/11/01 12:57:58;;;;;;;;;;;;;;;19.12;70.63;100919.63;2314110;76;50272;-74
2022/11/01 13:01:02;;;;;;;;;;;;;;;19.11;70.82;100925.50;2349936;75;51533;-75
2022/11/01 13:04:08;;;;;;;;;;;;;;;19.12;70.72;100928.50;2365078;74;51540;-75
2022/11/01 13:07:23;;;;;;;;;;;;;;;19.15;70.85;100938.04;2365860;74;51620;-75
2022/11/01 13:10:32;;;;;;;;;;;;;;;19.13;70.90;100926.65;2322144;75;54092;-74
2022/11/01 13:13:42;;;;;;;;;;;;;;;19.14;70.84;100933.70;2352446;75;50343;-75
2022/11/01 13:16:44;;;;;;;;;;;;;;;19.15;70.63;100925.45;2357655;74;51653;-74
2022/11/01 13:19:56;;;;;;;;;;;;;;;19.17;70.70;100929.31;2366001;74;50869;-73
2022/11/01 13:22:59;;;;;;;;;;;;;;;19.17;71.08;100933.84;2352497;75;51713;-74
2022/11/01 13:26:03;;;;;;;;;;;;;;;19.18;70.79;100921.58;2352301;75;51583;-74
2022/11/01 13:29:18;;;;;;;;;;;;;;;19.17;70.81;100918.58;2352327;75;51564;-74
2022/11/01 13:32:25;;;;;;;;;;;;;;;19.17;70.85;100929.31;2352620;75;50787;-74
2022/11/01 13:35:37;;;;;;;;;;;;;;;19.19;70.58;100934.48;2363182;74;50676;-75
2022/11/01 13:38:40;;;;;;;;;;;;;;;19.23;70.37;100923.22;2389020;74;50589;-75
2022/11/01 13:41:56;;;;;;;;;;;;;;;19.21;70.20;100919.87;2392663;74;50832;-75
2022/11/01 13:45:08;;;;;;;;;;;;;;;19.20;70.30;100939.67;2368604;74;51659;-74
2022/11/01 13:48:18;;;;;;;;;;;;;;;19.22;70.55;100945.70;2349063;74;50125;-75
2022/11/01 13:51:21;;;;;;;;;;;;;;;19.20;70.59;100938.33;2365709;74;50663;-74
2022/11/01 13:54:30;;;;;;;;;;;;;;;19.22;71.08;100934.97;2393094;74;50778;-74
2022/11/01 13:57:32;;;;;;;;;;;;;;;19.20;71.03;100928.95;2384626;74;51606;-73
2022/11/01 14:00:38;;;;;;;;;;;;;;;19.20;70.88;100937.50;2318830;75;49717;-74
2022/11/01 14:03:39;;;;;;;;;;;;;;;19.21;70.64;100933.80;2327418;75;51670;-76
2022/11/01 14:06:42;;;;;;;;;;;;;;;19.21;70.49;100933.80;2280401;77;51501;-75
2022/11/01 14:09:44;;;;;;;;;;;;;;;19.21;70.62;100944.53;2210852;77;49655;-75
2022/11/01 14:12:46;;;;;;;;;;;;;;;19.20;70.85;100942.36;2247197;78;50672;-74
2022/11/01 14:15:58;;;;;;;;;;;;;;;19.22;70.54;100946.22;2255556;78;50797;-74
2022/11/01 14:19:04;;;;;;;;;;;;;;;19.22;70.67;100938.17;2249786;78;51557;-73
2022/11/01 14:22:07;;;;;;;;;;;;;;;19.21;70.66;100944.53;2267645;78;51605;-73
2022/11/01 14:25:13;;;;;;;;;;;;;;;19.20;70.54;100949.06;2243725;78;52485;-74
2022/11/01 14:28:19;;;;;;;;;;;;;;;19.20;70.51;100958.45;2278182;78;50794;-74
2022/11/01 14:31:24;;;;;;;;;;;;;;;19.19;70.60;100953.25;2278278;78;51528;-74
2022/11/01 14:34:27;;;;;;;;;;;;;;;19.21;70.64;100955.26;2248186;78;50461;-74
2022/11/01 14:37:30;;;;;;;;;;;;;;;19.20;70.61;100962.48;2236736;78;50158;-74
2022/11/01 14:40:32;;;;;;;;;;;;;;;19.19;70.65;100955.45;2264527;78;51558;-75
2022/11/01 14:43:41;;;;;;;;;;;;;;;19.20;70.66;100965.16;2268320;78;51566;-75
2022/11/01 14:46:43;;;;;;;;;;;;;;;19.20;70.63;100965.16;2268565;77;50421;-74
2022/11/01 14:49:44;;;;;;;;;;;;;;;19.21;70.66;100973.52;2274617;78;49714;-75
2022/11/01 14:52:47;;;;;;;;;;;;;;;19.19;70.60;100972.03;2242362;78;50243;-74
2022/11/01 14:55:48;;;;;;;;;;;;;;;19.18;70.68;100969.86;2240573;79;51507;-75
2022/11/01 14:58:50;;;;;;;;;;;;;;;19.18;70.67;100969.86;2240735;79;50370;-74
2022/11/01 15:01:52;;;;;;;;;;;;;;;19.17;70.75;100980.80;2226799;78;50337;-75
2022/11/01 15:04:58;;;;;;;;;;;;;;;19.17;70.66;100978.11;2229771;77;51494;-74
2022/11/01 15:07:59;;;;;;;;;;;;;;;19.14;70.73;100979.30;2275934;77;51507;-75
2022/11/01 15:11:02;;;;;;;;;;;;;;;19.16;70.61;100983.95;2263283;78;50386;-73
2022/11/01 15:14:04;;;;;;;;;;;;;;;19.15;70.63;100983.64;2230766;78;50072;-74
2022/11/01 15:17:06;;;;;;;;;;;;;;;19.16;70.57;100986.64;2262844;77;50391;-75
2022/11/01 15:20:13;;;;;;;;;;;;;;;19.20;70.53;100979.09;2262969;78;51470;-75
2022/11/01 15:23:16;;;;;;;;;;;;;;;19.18;70.52;100980.59;2262924;78;22416;-74
2022/11/01 15:26:18;;;;;;;;;;;;;;;19.15;70.56;100984.47;2230449;78;52144;-75
2022/11/01 15:29:21;;;;;;;;;;;;;;;19.18;70.50;100985.95;2263363;78;50431;-75
2022/11/01 15:32:24;;;;;;;;;;;;;;;19.17;70.55;100994.20;2263247;78;51663;-78
2022/11/01 15:35:26;;;;;;;;;;;;;;;19.17;70.50;100988.33;2285155;77;51534;-78
2022/11/01 15:38:28;;;;;;;;;;;;;;;19.14;70.75;100995.39;2261549;77;50042;-77
2022/11/01 15:41:30;;;;;;;;;;;;;;;19.18;70.62;100999.37;2255506;77;50814;-77
2022/11/01 15:44:32;;;;;;;;;;;;;;;19.21;70.53;100999.52;2301479;77;51617;-77
2022/11/01 15:47:33;;;;;;;;;;;;;;;19.18;70.55;101002.05;2288532;77;51530;-77